KLOZ/LOZ METAR and TAF weather

Enter ICAO airport designator
Station Type Date Time Source
KLOZ METAR 2020/07/11 00:53 UTC NOAA

KLOZ 110053Z AUTO 30008KT 10SM CLR 26/19 A2992 RMK AO2 SLP118 T02610189


Station Type Date Time Source
KLOZ Decoded METAR 2020/07/11 00:53 UTC NOAA

LONDON-CORBIN AIRPORT, KY, United States (KLOZ) 37-05N 084-04W 362M
Jul 10, 2020 - 08:53 PM EDT / 2020.07.11 0053 UTC
Wind: from the WNW (300 degrees) at 9 MPH (8 KT):0
Visibility: 10 mile(s):0
Sky conditions: clear
Temperature: 79.0 F (26.1 C)
Dew Point: 66.0 F (18.9 C)
Relative Humidity: 64%
Pressure (altimeter): 29.92 in. Hg (1013 hPa)
ob: KLOZ 110053Z AUTO 30008KT 10SM CLR 26/19 A2992 RMK AO2 SLP118 T02610189
cycle: 1

Station Type Date Time Source
KLOZ TAF 2020/07/10 18:36 UTC NOAA

TAF KLOZ 101734Z 1018/1118 25005KT P6SM VCTS BKN050CB
FM102200 28012G20KT P6SM VCTS SCT060CB
FM102300 28012KT P6SM SCT060

Example: see airport list